Time;durP1;ratioP1;P1;durP2;ratioP2;P2;SDS_P1;SDS_P2;PMS_P1;PMS_P2;Temp;Humidity;BMP_temperature;BMP_pressure;BME280_temperature;BME280_humidity;BME280_pressure;Samples;Min_cycle;Max_cycle;Signal;HPM_P1;HPM_P2
2022/04/20 04:49:44;;;;;;;6.40;1.40;;;15.30;54.90;;;;;;4802427;29;20054;-74
2022/04/20 04:52:12;;;;;;;5.97;1.52;;;15.40;54.20;;;;;;4809260;29;20065;-71
2022/04/20 04:54:40;;;;;;;3.25;1.65;;;15.20;52.30;;;;;;4794179;29;20051;-71
2022/04/20 04:57:09;;;;;;;2.10;1.25;;;15.10;52.40;;;;;;4809179;29;20055;-71
2022/04/20 04:59:37;;;;;;;1.83;0.80;;;15.30;54.40;;;;;;4808848;29;20055;-73
2022/04/20 05:02:03;;;;;;;3.45;1.20;;;15.60;54.70;;;;;;4809378;29;20055;-72
2022/04/20 05:04:29;;;;;;;3.22;1.25;;;15.80;53.10;;;;;;4793104;29;20092;-74
2022/04/20 05:06:56;;;;;;;2.92;1.15;;;15.90;54.00;;;;;;4793955;29;20051;-77
2022/04/20 05:09:22;;;;;;;1.90;0.70;;;16.20;54.30;;;;;;4808707;29;20387;-71
2022/04/20 05:11:49;;;;;;;7.47;1.75;;;16.30;54.20;;;;;;4808947;29;20039;-72
2022/04/20 05:14:18;;;;;;;7.72;1.38;;;16.10;53.20;;;;;;4808580;29;20059;-72
2022/04/20 05:16:44;;;;;;;3.92;1.17;;;16.20;55.40;;;;;;4808658;29;20134;-74
2022/04/20 05:19:10;;;;;;;7.25;2.50;;;16.30;56.20;;;;;;4792828;29;20062;-73
2022/04/20 05:21:36;;;;;;;6.90;1.50;;;16.10;53.90;;;;;;4807506;29;20065;-72
2022/04/20 05:24:02;;;;;;;7.78;1.85;;;15.90;54.50;;;;;;4808195;29;20398;-73
2022/04/20 05:26:28;;;;;;;6.15;1.77;;;15.80;54.80;;;;;;4809059;29;20078;-73
2022/04/20 05:28:53;;;;;;;7.70;1.83;;;15.70;55.30;;;;;;4792865;29;20463;-74
2022/04/20 05:31:20;;;;;;;6.03;1.88;;;15.60;55.80;;;;;;4807676;29;20090;-74
2022/04/20 05:33:46;;;;;;;4.68;1.70;;;15.60;56.20;;;;;;4808623;29;20458;-72
2022/04/20 05:36:12;;;;;;;7.43;1.27;;;15.70;56.60;;;;;;4808750;29;20215;-73
2022/04/20 05:41:39;;;;;;;5.20;2.13;;;15.70;56.90;;;;;;4807967;29;20451;-74
2022/04/20 05:44:05;;;;;;;8.68;2.58;;;15.70;57.10;;;;;;4792855;29;20458;-74
2022/04/20 05:46:33;;;;;;;5.82;1.63;;;15.70;57.10;;;;;;4791916;29;20116;-73
2022/04/20 05:48:59;;;;;;;2.65;0.77;;;15.70;57.20;;;;;;4808730;29;20055;-74
2022/04/20 05:51:25;;;;;;;7.40;1.17;;;16.20;57.60;;;;;;4818475;29;20082;-73
2022/04/20 05:53:50;;;;;;;4.90;1.10;;;16.60;56.70;;;;;;4823115;29;20097;-75
2022/04/20 05:56:16;;;;;;;4.45;0.88;;;17.00;56.20;;;;;;4808010;29;20054;-72
2022/04/20 05:58:44;;;;;;;7.03;1.15;;;17.10;55.50;;;;;;4807058;29;20055;-73
2022/04/20 06:01:10;;;;;;;5.35;1.13;;;17.30;55.10;;;;;;4812317;29;20061;-73
2022/04/20 06:03:36;;;;;;;2.67;0.70;;;17.50;54.70;;;;;;4808303;29;20358;-73
2022/04/20 06:06:05;;;;;;;4.32;1.00;;;17.70;54.40;;;;;;4808077;29;20485;-74
2022/04/20 06:08:31;;;;;;;7.63;1.00;;;17.70;54.20;;;;;;4807856;29;20527;-75
2022/04/20 06:10:59;;;;;;;7.00;0.80;;;17.80;54.00;;;;;;4807536;29;20054;-75
2022/04/20 06:13:27;;;;;;;4.80;1.17;;;17.80;53.80;;;;;;4808281;29;20051;-75
2022/04/20 06:15:54;;;;;;;3.58;0.88;;;17.90;53.70;;;;;;4808121;29;20489;-74
2022/04/20 06:18:20;;;;;;;1.80;0.80;;;17.90;53.60;;;;;;4808310;29;20102;-75
2022/04/20 06:20:46;;;;;;;3.40;1.15;;;17.90;53.50;;;;;;4807858;29;20092;-73
2022/04/20 06:23:12;;;;;;;2.92;0.82;;;17.90;53.50;;;;;;4808538;29;20059;-75
2022/04/20 06:25:38;;;;;;;5.25;1.30;;;17.80;53.40;;;;;;4822275;29;20058;-73
2022/04/20 06:28:04;;;;;;;2.60;0.85;;;17.80;53.50;;;;;;4822197;29;20055;-75
2022/04/20 06:30:30;;;;;;;3.83;1.00;;;17.80;53.50;;;;;;4807813;29;20127;-75
2022/04/20 06:32:55;;;;;;;2.50;0.93;;;17.70;53.50;;;;;;4807607;29;20059;-72
2022/04/20 06:35:21;;;;;;;2.60;1.17;;;17.70;53.60;;;;;;4807639;29;20457;-75
2022/04/20 06:37:48;;;;;;;6.07;1.15;;;17.50;52.90;;;;;;4807225;29;20052;-74
2022/04/20 06:40:14;;;;;;;7.40;1.48;;;17.40;53.80;;;;;;4807181;29;20496;-74
2022/04/20 06:42:40;;;;;;;2.92;0.85;;;17.40;53.90;;;;;;4808329;29;20437;-74
2022/04/20 06:45:07;;;;;;;4.93;0.95;;;17.40;54.10;;;;;;4822056;29;20516;-74
2022/04/20 06:47:33;;;;;;;3.72;0.88;;;17.40;54.30;;;;;;4808035;29;20085;-75
2022/04/20 06:49:59;;;;;;;3.35;0.55;;;17.40;54.50;;;;;;4791971;29;20203;-74
2022/04/20 07:00:42;;;;;;;4.05;0.63;;;17.30;55.00;;;;;;4816239;29;20102;-75
2022/04/20 07:03:08;;;;;;;4.25;0.80;;;17.30;55.10;;;;;;4831808;29;20089;-75
2022/04/20 07:05:35;;;;;;;3.53;0.98;;;17.30;55.20;;;;;;4829666;29;20418;-75
2022/04/20 07:08:01;;;;;;;4.80;0.70;;;17.30;55.40;;;;;;4828299;29;20359;-75
2022/04/20 07:10:27;;;;;;;3.92;1.30;;;17.30;55.70;;;;;;4813138;29;20058;-75
2022/04/20 07:12:53;;;;;;;1.50;0.82;;;17.30;55.90;;;;;;4814847;29;20050;-73
2022/04/20 07:15:19;;;;;;;1.30;0.82;;;17.30;56.10;;;;;;4822803;29;20468;-74
2022/04/20 07:17:45;;;;;;;2.80;0.47;;;17.30;56.30;;;;;;4822855;29;20054;-73
2022/04/20 07:20:17;;;;;;;3.35;0.98;;;17.30;56.40;;;;;;4810517;29;20070;-75
2022/04/20 07:22:54;;;;;;;1.30;0.60;;;17.30;56.50;;;;;;4795076;29;20104;-75
2022/04/20 07:25:20;;;;;;;3.58;0.85;;;17.40;56.70;;;;;;4810157;29;20119;-73
2022/04/20 07:27:48;;;;;;;2.47;1.15;;;17.40;56.80;;;;;;4825708;29;20488;-76
2022/04/20 07:30:17;;;;;;;1.17;0.60;;;17.40;56.90;;;;;;4835927;29;20131;-74
2022/04/20 07:32:43;;;;;;;3.20;0.75;;;17.40;56.90;;;;;;4821469;29;20449;-74
2022/04/20 07:35:09;;;;;;;1.45;0.70;;;17.40;56.90;;;;;;4837936;29;20057;-74
2022/04/20 07:37:35;;;;;;;1.90;0.98;;;17.40;56.90;;;;;;4824436;29;20047;-75
2022/04/20 07:40:01;;;;;;;3.08;0.77;;;17.40;57.00;;;;;;4801126;29;20050;-73
2022/04/20 07:42:26;;;;;;;2.60;0.75;;;17.50;57.10;;;;;;4810797;29;20466;-76
2022/04/20 07:44:56;;;;;;;1.48;0.70;;;17.50;57.10;;;;;;4810355;29;20447;-74
2022/04/20 07:47:25;;;;;;;2.00;0.60;;;17.50;57.10;;;;;;4814834;29;20460;-74
2022/04/20 07:52:40;;;;;;;2.25;0.68;;;17.50;57.00;;;;;;4828289;29;20058;-73
2022/04/20 07:55:10;;;;;;;1.70;0.80;;;17.50;57.10;;;;;;4843577;29;20131;-73
2022/04/20 07:57:37;;;;;;;2.70;1.25;;;17.50;55.80;;;;;;4827739;29;20510;-75
2022/04/20 08:00:05;;;;;;;3.83;0.90;;;17.40;55.20;;;;;;4825982;29;20054;-73
2022/04/20 08:02:31;;;;;;;3.05;0.80;;;17.40;55.60;;;;;;4795864;29;20082;-75
2022/04/20 08:05:00;;;;;;;1.70;1.05;;;17.50;56.50;;;;;;4809299;29;20089;-74
2022/04/20 08:07:27;;;;;;;5.65;1.40;;;17.50;56.00;;;;;;4809803;29;20059;-76
2022/04/20 08:09:53;;;;;;;3.72;1.40;;;17.50;55.10;;;;;;4809074;29;20119;-70
2022/04/20 08:12:28;;;;;;;4.00;2.25;;;17.60;50.70;;;;;;4809936;29;20094;-79
2022/04/20 08:14:57;;;;;;;13.10;2.97;;;17.60;49.00;;;;;;4809749;29;20039;-76
2022/04/20 08:17:23;;;;;;;3.85;2.20;;;17.60;48.30;;;;;;4778393;29;20454;-72
2022/04/20 08:19:49;;;;;;;5.40;2.67;;;17.60;47.30;;;;;;4808997;29;20050;-79
2022/04/20 08:22:15;;;;;;;3.72;2.40;;;17.60;47.20;;;;;;4811789;29;20046;-76
2022/04/20 08:24:43;;;;;;;2.50;1.90;;;17.60;46.80;;;;;;4810310;29;20097;-78
2022/04/20 08:27:14;;;;;;;4.50;1.90;;;17.70;46.60;;;;;;4809664;29;20473;-76
2022/04/20 08:29:40;;;;;;;3.03;1.90;;;17.70;45.50;;;;;;4810042;29;20088;-79
2022/04/20 08:32:06;;;;;;;3.33;1.40;;;17.70;43.90;;;;;;4793802;29;20366;-77
2022/04/20 08:34:32;;;;;;;5.57;1.60;;;17.60;42.80;;;;;;4809480;29;20058;-78
2022/04/20 08:37:01;;;;;;;4.13;1.70;;;17.60;43.00;;;;;;4808693;29;20058;-76
2022/04/20 08:39:26;;;;;;;1.90;1.35;;;17.60;43.30;;;;;;4809239;29;20343;-76
2022/04/20 08:41:53;;;;;;;4.50;1.40;;;17.50;44.50;;;;;;4793964;29;20099;-76
2022/04/20 08:44:29;;;;;;;4.95;1.10;;;17.50;45.80;;;;;;4808714;29;20102;-72
2022/04/20 08:46:59;;;;;;;2.35;1.27;;;17.50;46.50;;;;;;4808989;29;20062;-77
2022/04/20 08:49:24;;;;;;;2.65;1.00;;;17.60;46.70;;;;;;4809222;29;20066;-77
2022/04/20 08:54:36;;;;;;;2.58;1.48;;;17.60;46.80;;;;;;4823618;29;20055;-76
2022/04/20 08:57:19;;;;;;;2.58;1.08;;;17.60;46.20;;;;;;4823185;29;20059;-75
2022/04/20 08:59:49;;;;;;;2.33;0.95;;;17.60;46.70;;;;;;4808894;29;20115;-76
2022/04/20 09:02:17;;;;;;;3.08;1.20;;;17.60;46.70;;;;;;4822552;29;20047;-76
2022/04/20 09:04:43;;;;;;;2.08;0.98;;;17.60;46.80;;;;;;4811008;29;20119;-76
2022/04/20 09:07:11;;;;;;;1.92;0.95;;;17.60;47.00;;;;;;4809073;29;20055;-75
2022/04/20 09:09:37;;;;;;;4.43;1.33;;;17.60;46.70;;;;;;4808279;29;20055;-78
2022/04/20 09:12:23;;;;;;;1.70;0.80;;;17.60;46.70;;;;;;4808755;29;20050;-76
2022/04/20 09:14:51;;;;;;;2.17;1.20;;;17.70;47.10;;;;;;4808079;29;20059;-77
2022/04/20 09:17:20;;;;;;;1.90;1.05;;;17.60;47.00;;;;;;4804590;29;20493;-75
2022/04/20 09:19:49;;;;;;;1.50;0.82;;;17.60;46.90;;;;;;4808300;29;20462;-78
2022/04/20 09:22:18;;;;;;;2.05;1.05;;;17.60;46.70;;;;;;4807464;29;20133;-77
2022/04/20 09:25:06;;;;;;;2.90;1.30;;;17.70;46.50;;;;;;4808080;29;20351;-76
2022/04/20 09:27:34;;;;;;;4.70;1.20;;;17.70;45.90;;;;;;4823120;29;20436;-74
2022/04/20 09:30:00;;;;;;;2.03;0.85;;;17.70;45.80;;;;;;4808541;29;20482;-76
2022/04/20 09:32:36;;;;;;;2.60;0.73;;;17.70;46.00;;;;;;4808211;29;20127;-80
2022/04/20 09:35:05;;;;;;;2.72;0.82;;;17.70;47.20;;;;;;4808477;29;20059;-76
2022/04/20 09:37:32;;;;;;;3.83;0.90;;;17.70;47.40;;;;;;4822979;29;20119;-78
2022/04/20 09:39:58;;;;;;;4.80;1.02;;;17.70;48.60;;;;;;4808404;29;20055;-78
2022/04/20 09:42:24;;;;;;;2.88;0.75;;;17.70;48.10;;;;;;4808410;29;20042;-78
2022/04/20 09:44:55;;;;;;;4.95;1.00;;;17.70;47.60;;;;;;4822251;29;20101;-77
2022/04/20 09:50:10;;;;;;;1.42;0.85;;;17.70;48.30;;;;;;4808515;29;20444;-77
2022/04/20 09:52:43;;;;;;;5.13;0.80;;;17.70;48.70;;;;;;4807601;29;20146;-75
2022/04/20 09:55:14;;;;;;;4.03;1.33;;;17.70;49.30;;;;;;4807685;29;20054;-75
2022/04/20 09:57:40;;;;;;;2.13;0.70;;;17.70;49.50;;;;;;4808222;29;20087;-75
2022/04/20 10:00:10;;;;;;;3.78;0.90;;;17.70;50.20;;;;;;4822582;29;20063;-75
2022/04/20 10:02:53;;;;;;;1.30;0.70;;;17.80;50.60;;;;;;4822637;29;20477;-73
2022/04/20 10:05:21;;;;;;;3.05;0.85;;;17.80;51.20;;;;;;4822167;29;20054;-75
2022/04/20 10:07:46;;;;;;;3.70;0.90;;;17.80;51.20;;;;;;4808407;29;20066;-77
2022/04/20 10:10:12;;;;;;;5.03;1.00;;;17.80;51.70;;;;;;4808331;29;20370;-73
2022/04/20 10:12:40;;;;;;;1.88;0.50;;;17.80;52.30;;;;;;4791906;29;20050;-76
2022/04/20 10:17:54;;;;;;;9.10;0.70;;;17.80;53.40;;;;;;4807681;29;20051;-75
2022/04/20 10:21:07;;;;;;;2.45;0.60;;;17.80;53.80;;;;;;4807956;29;20534;-75
2022/04/20 10:23:34;;;;;;;3.88;0.70;;;17.90;54.60;;;;;;4808184;29;20047;-74
2022/04/20 10:26:06;;;;;;;2.25;0.60;;;17.80;54.00;;;;;;4805834;29;20053;-75
2022/04/20 10:29:01;;;;;;;0.93;0.50;;;17.90;54.10;;;;;;4808151;29;20046;-76
2022/04/20 10:31:40;;;;;;;3.92;0.60;;;17.90;54.40;;;;;;4821692;29;20054;-75
2022/04/20 10:34:06;;;;;;;1.63;0.60;;;17.90;54.50;;;;;;4806913;29;20134;-78
2022/04/20 10:36:33;;;;;;;1.27;0.40;;;17.90;54.30;;;;;;4791287;29;20059;-70
2022/04/20 10:39:33;;;;;;;3.72;0.50;;;17.90;54.40;;;;;;4821795;29;20058;-72
2022/04/20 10:42:11;;;;;;;2.13;0.50;;;18.00;54.20;;;;;;4787200;29;20069;-73
2022/04/20 10:44:55;;;;;;;2.28;0.73;;;18.00;53.60;;;;;;4807251;29;20389;-74
2022/04/20 10:47:42;;;;;;;2.35;0.60;;;17.90;53.80;;;;;;4806329;29;20071;-73
2022/04/20 10:50:20;;;;;;;2.63;0.77;;;17.90;54.10;;;;;;4807523;29;20059;-72
2022/04/20 10:53:08;;;;;;;1.00;0.60;;;17.90;54.20;;;;;;4806355;29;20449;-73
2022/04/20 10:55:34;;;;;;;3.17;0.90;;;17.90;54.20;;;;;;4808466;29;20051;-72
2022/04/20 10:58:17;;;;;;;0.80;0.40;;;17.90;54.20;;;;;;4806491;29;20601;-72
2022/04/20 11:00:43;;;;;;;2.33;0.50;;;18.00;54.20;;;;;;4821065;29;20047;-73
2022/04/20 11:03:11;;;;;;;1.10;0.50;;;17.90;54.10;;;;;;4807737;29;20061;-72
2022/04/20 11:05:49;;;;;;;2.13;0.60;;;17.90;54.10;;;;;;4806816;29;20390;-72
2022/04/20 11:08:15;;;;;;;1.52;0.60;;;17.90;54.20;;;;;;4791398;29;20065;-72
2022/04/20 11:19:52;;;;;;;1.98;0.90;;;17.90;54.20;;;;;;4807637;29;20066;-73
2022/04/20 11:22:18;;;;;;;1.55;0.50;;;17.90;54.20;;;;;;4807143;29;20446;-71
2022/04/20 11:24:44;;;;;;;2.85;0.77;;;17.90;54.10;;;;;;4790867;29;20057;-71
2022/04/20 11:27:11;;;;;;;4.22;0.90;;;17.90;54.00;;;;;;4822035;29;20065;-72
2022/04/20 11:29:37;;;;;;;5.20;0.77;;;17.90;54.00;;;;;;4821636;29;20157;-73
2022/04/20 11:32:10;;;;;;;2.03;0.52;;;17.90;53.90;;;;;;4806039;29;20138;-73
2022/04/20 11:34:39;;;;;;;5.83;0.80;;;17.90;53.90;;;;;;4807206;29;20054;-72
2022/04/20 11:37:09;;;;;;;2.30;0.52;;;17.90;54.10;;;;;;4822069;29;20360;-72
2022/04/20 11:39:36;;;;;;;5.07;0.95;;;17.90;54.20;;;;;;4809921;29;20046;-72
2022/04/20 11:42:06;;;;;;;6.28;0.90;;;17.90;54.30;;;;;;4810694;29;20062;-72
2022/04/20 11:44:36;;;;;;;5.68;0.95;;;18.30;53.70;;;;;;4810824;29;20050;-74
2022/04/20 11:47:05;;;;;;;4.55;1.05;;;18.40;53.20;;;;;;4809334;29;20401;-73
2022/04/20 11:49:31;;;;;;;5.53;0.85;;;18.40;52.90;;;;;;4810752;29;20051;-71
2022/04/20 11:51:59;;;;;;;5.13;0.85;;;18.40;51.50;;;;;;4810693;29;20135;-71
2022/04/20 11:54:28;;;;;;;2.38;0.90;;;18.30;48.50;;;;;;4810214;29;20545;-70
2022/04/20 11:56:53;;;;;;;3.40;1.05;;;18.20;47.00;;;;;;4794375;29;20054;-70
2022/04/20 11:59:21;;;;;;;3.28;0.90;;;18.10;45.40;;;;;;4810626;29;20051;-72
2022/04/20 12:01:47;;;;;;;2.72;0.55;;;18.00;45.10;;;;;;4808782;29;20047;-71
2022/04/20 12:04:21;;;;;;;2.15;0.80;;;18.00;44.60;;;;;;4809435;29;20466;-71
2022/04/20 12:06:52;;;;;;;3.60;0.73;;;18.00;45.30;;;;;;4809654;29;20050;-72
2022/04/20 12:09:24;;;;;;;1.63;0.85;;;17.90;45.70;;;;;;4809634;29;20126;-71
2022/04/20 12:11:55;;;;;;;1.77;0.73;;;17.90;46.50;;;;;;4809689;29;20130;-72
2022/04/20 12:14:23;;;;;;;2.97;0.73;;;17.80;47.10;;;;;;4810077;29;20097;-72
2022/04/20 12:16:51;;;;;;;1.48;0.70;;;17.80;47.70;;;;;;4810109;29;20424;-71
2022/04/20 12:19:19;;;;;;;2.80;0.50;;;17.90;48.20;;;;;;4810748;29;20054;-71
2022/04/20 12:21:46;;;;;;;3.17;1.02;;;17.90;48.50;;;;;;4809198;29;20043;-71
2022/04/20 12:24:18;;;;;;;2.45;0.50;;;17.80;48.70;;;;;;4809862;29;20149;-72
2022/04/20 12:26:46;;;;;;;1.83;0.50;;;17.80;48.80;;;;;;4810201;29;20055;-71
2022/04/20 12:29:13;;;;;;;1.73;0.50;;;17.80;49.10;;;;;;4809943;29;20067;-72
2022/04/20 12:31:41;;;;;;;2.05;0.40;;;17.80;49.30;;;;;;4809389;29;20067;-70
2022/04/20 12:34:09;;;;;;;1.20;0.47;;;17.80;49.50;;;;;;4809972;29;20054;-71
2022/04/20 12:36:58;;;;;;;1.20;0.50;;;17.80;49.70;;;;;;4810228;29;20050;-72
2022/04/20 12:39:32;;;;;;;1.48;0.60;;;17.80;50.10;;;;;;4809865;29;20059;-72
2022/04/20 12:42:02;;;;;;;2.10;0.47;;;17.80;50.20;;;;;;4809432;29;20359;-72
2022/04/20 12:44:46;;;;;;;2.67;0.70;;;17.80;50.20;;;;;;4809767;29;20116;-71
2022/04/20 12:47:14;;;;;;;0.90;0.50;;;17.80;50.40;;;;;;4827915;29;20094;-71
2022/04/20 12:49:41;;;;;;;1.25;0.57;;;17.80;50.70;;;;;;4811153;29;20068;-71
2022/04/20 12:52:29;;;;;;;1.05;0.43;;;17.80;50.80;;;;;;4826290;29;20061;-71
2022/04/20 12:54:58;;;;;;;0.77;0.40;;;17.80;51.00;;;;;;4827457;29;20066;-71
2022/04/20 13:03:07;;;;;;;;;;;17.80;51.20;;;;;;4827868;29;20058;-72
2022/04/20 13:05:35;;;;;;;3.83;0.50;;;17.70;51.60;;;;;;4826948;29;20422;-71
2022/04/20 13:08:02;;;;;;;1.45;0.30;;;17.80;51.60;;;;;;4827659;29;20053;-71
2022/04/20 13:10:35;;;;;;;0.50;0.35;;;17.70;51.70;;;;;;4827087;29;20038;-71
2022/04/20 13:13:01;;;;;;;1.02;0.40;;;17.80;51.80;;;;;;4827197;29;20050;-71
2022/04/20 13:15:29;;;;;;;1.60;0.60;;;17.80;51.80;;;;;;4826678;29;20066;-70
2022/04/20 13:17:56;;;;;;;1.17;0.30;;;17.80;52.00;;;;;;4827400;29;20061;-71
2022/04/20 13:20:22;;;;;;;0.68;0.30;;;17.70;52.10;;;;;;4826970;29;20567;-71
2022/04/20 13:22:48;;;;;;;1.48;0.40;;;17.80;52.20;;;;;;4826877;29;20497;-72
2022/04/20 13:27:58;;;;;;;2.05;0.45;;;17.70;52.40;;;;;;4826856;29;20099;-72
2022/04/20 13:30:25;;;;;;;1.95;0.50;;;17.80;52.50;;;;;;4826403;29;20146;-72
2022/04/20 13:32:55;;;;;;;2.00;0.40;;;17.70;52.60;;;;;;4825348;29;20049;-72
2022/04/20 13:35:22;;;;;;;1.40;0.30;;;17.70;52.70;;;;;;4810065;29;20065;-70
2022/04/20 13:37:48;;;;;;;1.35;0.30;;;17.70;52.80;;;;;;4824550;29;20046;-71
2022/04/20 13:40:14;;;;;;;1.40;0.65;;;17.70;52.90;;;;;;4826166;29;20129;-71
2022/04/20 13:42:40;;;;;;;0.77;0.30;;;17.70;52.80;;;;;;4825474;29;20086;-71
2022/04/20 13:45:06;;;;;;;1.85;0.70;;;17.70;52.80;;;;;;4823000;29;20067;-72
2022/04/20 13:47:33;;;;;;;1.15;0.50;;;17.70;52.90;;;;;;4807867;29;20062;-71
2022/04/20 13:50:02;;;;;;;2.30;0.50;;;17.70;53.00;;;;;;4806886;29;20055;-71
2022/04/20 13:52:28;;;;;;;5.47;0.68;;;17.70;53.20;;;;;;4809005;29;20054;-74
2022/04/20 13:54:55;;;;;;;8.15;0.80;;;17.70;53.50;;;;;;4792571;29;20046;-74
2022/04/20 13:57:21;;;;;;;9.10;1.20;;;17.80;53.60;;;;;;4807871;29;20454;-77
2022/04/20 13:59:47;;;;;;;12.73;0.95;;;17.80;53.70;;;;;;4791107;29;20050;-78
2022/04/20 14:02:13;;;;;;;6.60;1.30;;;17.80;54.00;;;;;;4807780;29;20108;-72
2022/04/20 14:04:39;;;;;;;9.77;0.80;;;17.90;54.40;;;;;;4822614;29;20100;-72
2022/04/20 14:07:05;;;;;;;3.65;1.08;;;17.90;54.50;;;;;;4808058;29;20446;-72
2022/04/20 14:09:31;;;;;;;6.25;0.80;;;17.80;54.60;;;;;;4808949;29;20150;-72
2022/04/20 14:11:58;;;;;;;4.63;0.70;;;17.90;54.70;;;;;;4807991;29;20122;-73
2022/04/20 14:14:24;;;;;;;8.88;1.30;;;17.80;54.80;;;;;;4807786;29;20462;-73
2022/04/20 14:16:49;;;;;;;7.15;1.45;;;17.90;55.00;;;;;;4808391;29;20146;-74
2022/04/20 14:19:15;;;;;;;9.80;1.38;;;17.80;55.10;;;;;;4808147;29;20055;-73
2022/04/20 14:21:41;;;;;;;6.57;0.98;;;17.80;55.10;;;;;;4792490;29;20454;-73
2022/04/20 14:24:07;;;;;;;8.20;1.40;;;17.80;55.10;;;;;;4807792;29;20473;-75
2022/04/20 14:32:20;;;;;;;6.82;0.88;;;17.80;55.20;;;;;;4806964;29;20125;-78
2022/04/20 14:34:48;;;;;;;16.33;1.52;;;17.90;55.40;;;;;;4822021;29;20069;-72
2022/04/20 14:37:16;;;;;;;10.95;1.50;;;17.90;55.60;;;;;;4814111;29;20373;-74
2022/04/20 14:39:43;;;;;;;12.10;1.27;;;17.90;55.80;;;;;;4814314;29;20354;-73
2022/04/20 14:42:09;;;;;;;15.88;1.58;;;17.90;55.90;;;;;;4807391;29;20054;-72
2022/04/20 14:44:35;;;;;;;6.70;1.42;;;17.90;55.80;;;;;;4807365;29;20134;-73
2022/04/20 14:47:11;;;;;;;5.65;1.10;;;17.90;55.90;;;;;;4806631;29;20062;-72
2022/04/20 14:49:41;;;;;;;12.80;1.20;;;17.90;55.90;;;;;;4807272;29;20051;-73
2022/04/20 14:52:09;;;;;;;5.00;1.05;;;17.90;56.50;;;;;;4807005;29;20086;-73
2022/04/20 14:54:38;;;;;;;15.45;1.92;;;17.90;56.60;;;;;;4807515;29;20058;-73
2022/04/20 14:57:05;;;;;;;11.55;1.10;;;17.90;57.00;;;;;;4807563;29;20111;-72
2022/04/20 14:59:31;;;;;;;5.13;0.98;;;17.90;57.30;;;;;;4807489;29;20557;-72
2022/04/20 15:01:57;;;;;;;5.85;1.25;;;18.00;57.00;;;;;;4807386;29;20058;-73
2022/04/20 15:04:23;;;;;;;9.40;1.95;;;18.00;56.90;;;;;;4806537;29;20065;-74
2022/04/20 15:06:50;;;;;;;6.47;1.65;;;17.90;56.80;;;;;;4807540;29;20066;-73
2022/04/20 15:09:19;;;;;;;5.57;1.55;;;17.90;55.40;;;;;;4807610;29;20055;-74
2022/04/20 15:11:46;;;;;;;5.00;1.52;;;17.90;55.40;;;;;;4806987;29;20062;-73
2022/04/20 15:14:16;;;;;;;5.03;1.55;;;17.90;55.50;;;;;;4810861;29;20097;-74
2022/04/20 15:16:42;;;;;;;7.13;1.23;;;17.90;55.20;;;;;;4811160;29;20077;-74
2022/04/20 15:19:11;;;;;;;8.32;1.15;;;17.90;55.30;;;;;;4810841;29;20394;-75
2022/04/20 15:21:38;;;;;;;6.65;1.00;;;17.90;55.60;;;;;;4807411;29;20055;-74
2022/04/20 15:24:04;;;;;;;8.27;1.38;;;17.90;55.40;;;;;;4806015;29;20043;-73
2022/04/20 15:26:33;;;;;;;10.70;1.77;;;17.90;55.70;;;;;;4810548;29;20085;-75
2022/04/20 15:28:59;;;;;;;13.35;2.47;;;17.90;56.00;;;;;;4810935;29;20047;-73
2022/04/20 15:31:25;;;;;;;11.38;1.65;;;17.90;55.90;;;;;;4817126;29;20419;-74
2022/04/20 15:33:51;;;;;;;10.25;2.22;;;18.00;55.60;;;;;;4810440;29;20051;-73
2022/04/20 15:36:18;;;;;;;12.43;1.48;;;18.00;54.90;;;;;;4811108;29;20125;-72
2022/04/20 15:38:49;;;;;;;16.42;2.60;;;18.00;54.70;;;;;;4810557;29;20050;-73
2022/04/20 15:41:15;;;;;;;12.32;2.38;;;18.00;54.20;;;;;;4810497;29;20042;-74
2022/04/20 15:43:41;;;;;;;12.13;1.90;;;18.00;54.00;;;;;;4810874;29;20047;-78
2022/04/20 15:46:07;;;;;;;22.85;3.03;;;18.00;54.10;;;;;;4810167;29;20142;-74
2022/04/20 15:48:33;;;;;;;8.25;1.70;;;18.00;54.10;;;;;;4824615;29;20055;-74
2022/04/20 15:51:01;;;;;;;12.77;2.25;;;18.00;54.10;;;;;;4810626;29;20125;-74
2022/04/20 15:53:28;;;;;;;21.45;2.42;;;18.00;54.10;;;;;;4811021;29;20133;-74
2022/04/20 16:01:22;;;;;;;9.93;1.70;;;18.00;53.70;;;;;;4809433;29;20054;-75
2022/04/20 16:03:48;;;;;;;13.77;2.38;;;17.90;53.70;;;;;;4807755;29;20057;-74
2022/04/20 16:06:15;;;;;;;10.63;2.00;;;17.90;53.40;;;;;;4810072;29;20055;-74
2022/04/20 16:08:41;;;;;;;10.20;2.15;;;17.90;53.70;;;;;;4809822;29;20046;-74
2022/04/20 16:11:09;;;;;;;13.95;2.75;;;17.90;53.80;;;;;;4810186;29;20115;-75
2022/04/20 16:13:34;;;;;;;11.50;2.08;;;18.00;53.80;;;;;;4810113;29;20073;-75
2022/04/20 16:16:00;;;;;;;8.23;2.60;;;18.00;53.70;;;;;;4809977;29;20046;-74
2022/04/20 16:18:27;;;;;;;7.75;2.15;;;18.10;53.00;;;;;;4809697;29;20058;-74
2022/04/20 16:20:52;;;;;;;6.53;1.80;;;18.00;52.00;;;;;;4810193;29;20436;-75
2022/04/20 16:23:18;;;;;;;8.90;1.90;;;18.00;52.30;;;;;;4809713;29;20047;-75
2022/04/20 16:25:44;;;;;;;10.82;2.03;;;18.00;52.80;;;;;;4810179;29;20422;-74
2022/04/20 16:28:10;;;;;;;7.25;1.45;;;18.00;52.90;;;;;;4809347;29;20058;-78
2022/04/20 16:30:37;;;;;;;10.57;1.65;;;18.00;53.20;;;;;;4823958;29;20057;-76
2022/04/20 16:33:03;;;;;;;8.57;2.15;;;18.00;53.50;;;;;;4809740;29;20050;-75
2022/04/20 16:35:30;;;;;;;6.93;1.38;;;18.00;53.90;;;;;;4810155;29;20359;-74
2022/04/20 16:37:56;;;;;;;11.55;2.25;;;18.00;54.20;;;;;;4809652;29;20071;-74
2022/04/20 16:40:22;;;;;;;9.07;1.10;;;18.00;54.40;;;;;;4809617;29;20054;-74
2022/04/20 16:42:47;;;;;;;10.88;1.50;;;18.10;54.60;;;;;;4808541;29;20054;-74
2022/04/20 16:45:13;;;;;;;7.28;1.20;;;18.10;54.60;;;;;;4809318;29;20062;-75
2022/04/20 16:47:42;;;;;;;9.75;1.60;;;18.10;54.80;;;;;;4809238;29;20059;-77
2022/04/20 16:50:10;;;;;;;9.32;1.90;;;18.10;55.00;;;;;;4810253;29;20058;-77
2022/04/20 16:52:37;;;;;;;9.63;1.67;;;18.20;55.10;;;;;;4809368;29;20043;-76
2022/04/20 16:55:05;;;;;;;6.22;1.38;;;18.20;55.00;;;;;;4809678;29;20491;-75
2022/04/20 16:57:34;;;;;;;6.78;1.30;;;18.30;55.40;;;;;;4809341;29;20055;-75
2022/04/20 17:00:02;;;;;;;7.00;1.40;;;18.30;55.20;;;;;;4809270;29;20062;-75
2022/04/20 17:02:27;;;;;;;5.05;1.23;;;18.30;55.20;;;;;;4809419;29;20090;-74
2022/04/20 17:04:53;;;;;;;7.75;1.75;;;18.30;55.10;;;;;;4808739;29;20134;-77
2022/04/20 17:07:20;;;;;;;8.70;1.50;;;18.30;55.40;;;;;;4809329;29;20059;-75
2022/04/20 17:09:46;;;;;;;6.05;1.65;;;18.30;55.20;;;;;;4808360;29;20058;-79
2022/04/20 17:12:13;;;;;;;8.45;1.85;;;18.30;54.60;;;;;;4809275;29;20050;-76
2022/04/20 17:14:39;;;;;;;6.05;1.35;;;18.20;53.70;;;;;;4808991;29;20093;-77
2022/04/20 17:17:05;;;;;;;6.13;1.85;;;18.20;53.50;;;;;;4809045;29;20047;-78
2022/04/20 17:19:34;;;;;;;7.38;2.15;;;18.10;53.90;;;;;;4808729;29;20054;-77
2022/04/20 17:27:25;;;;;;;36.75;4.07;;;18.00;54.70;;;;;;4808893;29;20046;-78
2022/04/20 17:29:51;;;;;;;25.38;3.70;;;18.00;54.70;;;;;;4808744;29;20535;-77
2022/04/20 17:32:17;;;;;;;30.60;4.05;;;18.00;53.70;;;;;;4808748;29;20092;-77
2022/04/20 17:34:43;;;;;;;22.25;4.28;;;18.00;53.80;;;;;;4808098;29;20046;-77
2022/04/20 17:37:10;;;;;;;28.48;3.58;;;18.00;53.80;;;;;;4809273;29;20089;-78
2022/04/20 17:39:36;;;;;;;21.48;3.47;;;18.00;54.30;;;;;;4808270;29;20066;-77
2022/04/20 17:42:02;;;;;;;21.55;3.05;;;18.00;53.90;;;;;;4808900;29;20054;-77
2022/04/20 17:44:28;;;;;;;33.42;3.65;;;18.00;54.50;;;;;;4793066;29;20324;-76
2022/04/20 17:46:56;;;;;;;14.38;2.97;;;17.90;54.50;;;;;;4821871;29;20062;-77
2022/04/20 17:49:22;;;;;;;14.05;2.85;;;17.90;54.70;;;;;;4826595;29;20133;-77
2022/04/20 17:51:49;;;;;;;19.02;2.63;;;17.90;54.50;;;;;;4826321;29;20054;-77
2022/04/20 17:54:16;;;;;;;25.55;2.97;;;17.90;54.60;;;;;;4826784;29;20100;-77
2022/04/20 17:56:43;;;;;;;15.80;2.78;;;17.90;54.60;;;;;;4827020;29;20061;-76
2022/04/20 17:59:10;;;;;;;11.18;2.25;;;17.90;54.60;;;;;;4826184;29;20046;-77
2022/04/20 18:01:42;;;;;;;6.93;1.60;;;17.80;52.90;;;;;;4826209;29;20054;-77
2022/04/20 18:04:08;;;;;;;8.82;2.15;;;17.80;52.20;;;;;;4826169;29;20046;-77
2022/04/20 18:06:34;;;;;;;8.27;1.70;;;17.70;52.10;;;;;;4826589;29;20043;-76
2022/04/20 18:09:00;;;;;;;11.13;2.55;;;17.60;52.10;;;;;;4810471;29;20062;-77
2022/04/20 18:11:28;;;;;;;8.77;1.70;;;17.50;52.00;;;;;;4825952;29;20077;-76
2022/04/20 18:13:55;;;;;;;8.48;1.30;;;17.50;52.00;;;;;;4826678;29;20042;-76
2022/04/20 18:16:21;;;;;;;9.23;1.80;;;17.50;52.10;;;;;;4826668;29;20055;-76
2022/04/20 18:18:47;;;;;;;11.50;2.35;;;17.40;51.90;;;;;;4810534;29;20130;-71
2022/04/20 18:21:13;;;;;;;6.78;1.35;;;17.40;52.90;;;;;;4840828;29;20050;-76
2022/04/20 18:23:41;;;;;;;5.75;1.35;;;17.40;53.00;;;;;;4826432;29;20374;-84
2022/04/20 18:26:08;;;;;;;12.45;1.90;;;17.40;52.90;;;;;;4826222;29;20464;-73
2022/04/20 18:28:34;;;;;;;7.10;1.85;;;17.50;54.00;;;;;;4826274;29;20418;-72
2022/04/20 18:30:59;;;;;;;7.00;1.50;;;17.50;53.70;;;;;;4826589;29;20048;-70
2022/04/20 18:33:25;;;;;;;4.82;1.23;;;17.50;52.90;;;;;;4825131;29;20054;-77
2022/04/20 18:35:51;;;;;;;4.80;1.33;;;17.50;52.00;;;;;;4810827;29;20446;-79